Terminal Aerodrome Forecast
Issued by NWS Sterling, VA

Current Version | Previous Version | Graphics & Text | Print | Product List | Glossary On
Versions: 1 2 3 4 5 6 7 8 9 10 11 12 13 14 15 16 17 18 19 20 21 22 23 24
000
FTUS41 KLWX 252339
TAFDCA
TAF
KDCA 252339Z 2600/2624 VRB04KT P6SM OVC200
     FM260200 VRB03KT P6SM BKN035 OVC080
     FM260800 04009KT 3SM -SN OVC020
     FM261000 01010KT 1SM -SN OVC015
     FM261700 35010KT P6SM OVC030
     FM261900 36008KT P6SM BKN035=

USA.gov is the U.S. government's official web portal to all federal, state and local government web resources and services.